Accueil
METAR-TAF:

METAR-TAF

Aéroports :

Aéroport international de Rabat-Salé

Rabat, Maroc

latitude: 34-03N, longitude: 006-46W, altitude: 84 m

Observation

Le bulletin a été fait il y a 23 minutes, à 00:00 UTC
Vent calme
Température 10°C
Humidité 100%
Pression 1014 hPa
Visibilité: 5000 m

METAR: GMME 230000Z 00000KT 5000 NSC 10/10 Q1014 NOSIG

Heure: 01:23 (00:23 UTC)

Prévision

Le bulletin a été fait il y a 7 heures et 23 minutes, à 17:00 UTC
Prévision valable du 22 à 18 UTC au 23 à 24 UTC
Vent 15 kt de nord-est
Visibilité: 6000 m
Temporairement
du 23 à 00 UTC au 23 à 06 UTC
Vent 6 kt de sud-est
Evoluant progressivement
du 23 à 08 UTC au 23 à 12 UTC
Vent 12 kt de nord

TAF: GMME 221700Z 2218/2324 04015KT 6000 NSC TEMPO 2300/2306 14006KT BECMG 2308/2312 36012KT

Observations et prévisions météorologiques de plus de 4000 aéroports (messages METAR et TAF).

Les stations disponibles sont représentées par des disques jaunes et rouges sur la carte.

Passer la souris dessus pour voir le nom de la station.

Cliquer dessus pour voir les observations et prévisions météorologiques.

Pour changer de carte: cliquez sur les boutons verts avec une croix noire pour zoomer, sur le bouton vert avec un tiret pour effectuer un zoom arrière, ou sur les flèches vertes pour les cartes adjacentes.


METAR-TAF: